Time;durP1;ratioP1;P1;durP2;ratioP2;P2;SDS_P1;SDS_P2;PMS_P1;PMS_P2;Temp;Humidity;BMP_temperature;BMP_pressure;BME280_temperature;BME280_humidity;BME280_pressure;Samples;Min_cycle;Max_cycle;Signal;HPM_P1;HPM_P2
2022/10/26 00:01:13;;;;;;;6.80;6.20;;;;;;;12.84;96.22;99509.61;1649287;85;21042;-85
2022/10/26 00:03:42;;;;;;;7.42;6.83;;;;;;;12.91;95.93;99512.37;1651798;85;21145;-83
2022/10/26 00:06:16;;;;;;;8.43;7.62;;;;;;;12.87;95.88;99514.58;1643745;85;21110;-81
2022/10/26 00:08:44;;;;;;;8.10;7.40;;;;;;;12.82;96.24;99511.64;1657865;85;21172;-83
2022/10/26 00:11:11;;;;;;;8.85;7.95;;;;;;;12.85;96.19;99514.45;1651961;85;21048;-82
2022/10/26 00:13:38;;;;;;;8.53;7.72;;;;;;;12.91;95.94;99521.18;1657005;85;21511;-81
2022/10/26 00:16:17;;;;;;;9.70;8.70;;;;;;;12.89;96.00;99515.73;1652161;85;21071;-83
2022/10/26 00:18:45;;;;;;;10.15;9.18;;;;;;;12.85;96.16;99519.79;1656730;86;21075;-84
2022/10/26 00:21:12;;;;;;;10.98;9.88;;;;;;;12.87;95.92;99523.09;1657284;85;21259;-83
2022/10/26 00:23:40;;;;;;;10.50;9.40;;;;;;;12.93;95.48;99530.33;1659810;86;21093;-86
2022/10/26 00:26:06;;;;;;;10.75;9.75;;;;;;;12.87;95.42;99515.91;1662219;85;21073;-87
2022/10/26 00:28:33;;;;;;;10.48;9.48;;;;;;;12.81;95.67;99522.52;1662580;85;21088;-85
2022/10/26 00:31:03;;;;;;;11.83;10.58;;;;;;;12.80;95.78;99516.34;1659972;85;21026;-84
2022/10/26 00:33:31;;;;;;;12.47;11.28;;;;;;;12.86;95.68;99522.76;1660831;86;21203;-86
2022/10/26 00:35:58;;;;;;;11.40;10.40;;;;;;;12.78;95.75;99525.84;1659957;86;21096;-86
2022/10/26 00:38:25;;;;;;;12.50;11.18;;;;;;;12.73;96.42;99523.45;1661957;83;21041;-84
2022/10/26 00:40:52;;;;;;;12.35;11.15;;;;;;;12.74;96.26;99528.57;1658565;81;21537;-86
2022/10/26 00:43:28;;;;;;;12.65;11.35;;;;;;;12.73;95.92;99523.45;1647510;85;21071;-84
2022/10/26 00:45:55;;;;;;;12.70;11.50;;;;;;;12.65;96.26;99528.38;1661991;85;21783;-85
2022/10/26 00:48:28;;;;;;;12.13;10.63;;;;;;;12.61;97.04;99532.41;1654734;86;21057;-86
2022/10/26 00:50:55;;;;;;;11.78;10.60;;;;;;;12.61;96.89;99535.59;1659539;86;21018;-87
2022/10/26 00:53:23;;;;;;;13.13;11.83;;;;;;;12.65;97.08;99524.39;1658690;85;21637;-85
2022/10/26 00:55:50;;;;;;;11.68;10.58;;;;;;;12.65;97.08;99529.72;1657644;85;21648;-84
2022/10/26 00:58:17;;;;;;;10.75;9.70;;;;;;;12.60;97.16;99529.44;1660784;84;21688;-87
2022/10/26 01:00:43;;;;;;;10.50;9.50;;;;;;;12.58;96.93;99532.28;1676473;84;21097;-88
2022/10/26 01:03:10;;;;;;;11.05;9.63;;;;;;;12.59;96.96;99530.44;1643678;85;21089;-85
2022/10/26 01:05:41;;;;;;;9.83;8.93;;;;;;;12.59;97.08;99525.11;1660964;81;20962;-87
2022/10/26 01:08:07;;;;;;;9.55;8.70;;;;;;;12.50;97.37;99526.25;1614939;84;20991;-85
2022/10/26 01:10:37;;;;;;;9.60;8.60;;;;;;;12.54;97.77;99530.19;1667091;83;21444;-85
2022/10/26 01:13:04;;;;;;;9.05;8.00;;;;;;;12.65;97.52;99530.20;1661081;82;21166;-85
2022/10/26 01:15:48;;;;;;;8.83;7.97;;;;;;;12.66;97.23;99531.36;1671490;85;21585;-87
2022/10/26 01:18:32;;;;;;;10.23;8.40;;;;;;;12.58;97.17;99534.95;1673470;84;21321;-84
2022/10/26 01:21:10;;;;;;;8.20;7.50;;;;;;;12.57;97.29;99534.64;1634344;85;21182;-86
2022/10/26 01:24:11;;;;;;;10.20;8.45;;;;;;;12.61;97.32;99531.08;1643187;85;21126;-83
2022/10/26 01:26:43;;;;;;;8.38;7.62;;;;;;;12.54;97.34;99527.52;1646659;87;21063;-88
2022/10/26 01:29:32;;;;;;;8.15;7.35;;;;;;;12.51;97.48;99526.03;1665458;84;21564;-87
2022/10/26 01:32:06;;;;;;;8.20;7.45;;;;;;;12.50;97.37;99523.07;1642220;85;21215;-85
2022/10/26 01:34:46;;;;;;;8.43;7.60;;;;;;;12.45;97.65;99529.45;1640429;85;21110;-83
2022/10/26 01:37:16;;;;;;;8.20;7.12;;;;;;;12.41;97.82;99531.35;1672339;85;21163;-82
2022/10/26 01:39:52;;;;;;;8.65;7.78;;;;;;;12.39;97.71;99527.02;1641594;85;21603;-82
2022/10/26 01:42:20;;;;;;;8.15;7.45;;;;;;;12.30;97.90;99529.45;1623615;87;21121;-83
2022/10/26 01:45:03;;;;;;;7.45;6.75;;;;;;;12.22;98.39;99524.73;1667193;84;21233;-85
2022/10/26 01:47:30;;;;;;;;;;;;;;;12.24;98.33;99527.53;1679188;81;21050;-83
2022/10/26 01:49:57;;;;;;;9.93;8.90;;;;;;;12.26;98.41;99529.50;1649179;81;21203;-85
2022/10/26 01:52:25;;;;;;;8.90;7.75;;;;;;;12.14;98.55;99521.66;1676104;82;21007;-86
2022/10/26 01:55:07;;;;;;;8.03;7.30;;;;;;;12.17;98.69;99525.30;1661077;85;20959;-85
2022/10/26 01:57:34;;;;;;;8.80;7.90;;;;;;;12.25;98.82;99529.71;1668329;82;20994;-85
2022/10/26 02:00:11;;;;;;;12.15;9.33;;;;;;;12.21;98.88;99527.91;1649493;85;21187;-86
2022/10/26 02:02:56;;;;;;;8.25;7.45;;;;;;;12.17;99.42;99530.12;1650116;82;20999;-85
2022/10/26 02:05:47;;;;;;;8.33;7.37;;;;;;;12.21;99.13;99530.58;1638061;86;21027;-86
2022/10/26 02:08:33;;;;;;;9.68;8.68;;;;;;;12.28;98.87;99530.14;1634488;85;21065;-81
2022/10/26 02:11:37;;;;;;;8.88;7.97;;;;;;;12.25;99.06;99535.86;1629828;87;21037;-85
2022/10/26 02:14:23;;;;;;;;;;;;;;;12.21;99.09;99535.91;1637103;86;21045;-83
2022/10/26 02:16:57;;;;;;;11.83;7.80;;;;;;;12.33;99.22;99538.42;1662508;86;21146;-83
2022/10/26 02:19:34;;;;;;;10.20;8.60;;;;;;;12.33;98.90;99543.75;1662180;85;21108;-82
2022/10/26 02:22:24;;;;;;;9.10;8.28;;;;;;;12.26;98.89;99537.50;1664986;86;21065;-83
2022/10/26 02:24:52;;;;;;;10.32;9.08;;;;;;;12.27;98.72;99541.83;1644408;86;21092;-82
2022/10/26 02:27:27;;;;;;;9.83;8.93;;;;;;;12.26;99.08;99537.50;1663293;86;21079;-83
2022/10/26 02:29:54;;;;;;;11.22;8.85;;;;;;;12.21;98.98;99549.22;1658050;85;22092;-81
2022/10/26 02:32:23;;;;;;;8.90;8.03;;;;;;;12.20;98.86;99541.72;1612411;87;21697;-81
2022/10/26 02:34:50;;;;;;;11.00;9.88;;;;;;;12.26;98.82;99548.66;1657760;85;21090;-83
2022/10/26 02:37:19;;;;;;;10.48;9.43;;;;;;;12.21;98.95;99543.90;1667057;84;21119;-83
2022/10/26 02:39:47;;;;;;;11.55;8.98;;;;;;;12.12;99.40;99542.33;1661239;84;21578;-83
2022/10/26 02:42:14;;;;;;;9.85;8.20;;;;;;;12.14;99.46;99546.96;1662831;84;21162;-83
2022/10/26 02:44:45;;;;;;;9.05;8.18;;;;;;;12.18;99.13;99546.91;1662597;86;21565;-81
2022/10/26 02:47:12;;;;;;;12.90;9.43;;;;;;;12.17;99.41;99543.95;1656434;84;21080;-81
2022/10/26 02:49:38;;;;;;;9.73;8.68;;;;;;;12.16;99.79;99544.94;1649305;84;21114;-81
2022/10/26 02:52:16;;;;;;;11.05;8.40;;;;;;;12.16;99.56;99547.60;1665045;84;21024;-80
2022/10/26 02:54:55;;;;;;;10.08;8.08;;;;;;;12.22;99.27;99545.53;1664684;84;21103;-81
2022/10/26 02:57:39;;;;;;;9.95;9.00;;;;;;;12.14;99.20;99546.96;1649311;84;21011;-80
2022/10/26 03:00:11;;;;;;;10.18;8.00;;;;;;;12.06;99.70;99548.39;1680087;83;21598;-80
2022/10/26 03:02:38;;;;;;;9.40;8.45;;;;;;;12.08;99.53;99548.52;1655009;85;21058;-80
2022/10/26 03:05:19;;;;;;;10.72;8.88;;;;;;;12.13;99.52;99554.61;1672231;84;21117;-81
2022/10/26 03:07:48;;;;;;;9.90;8.85;;;;;;;12.12;99.70;99555.12;1665864;85;21668;-81
2022/10/26 03:10:15;;;;;;;9.38;8.25;;;;;;;12.10;100.00;99558.99;1662563;84;21081;-80
2022/10/26 03:12:42;;;;;;;8.90;8.00;;;;;;;12.13;99.83;99555.47;1663118;85;21058;-81
2022/10/26 03:15:09;;;;;;;9.98;8.50;;;;;;;12.18;99.38;99557.05;1666234;84;21549;-81
2022/10/26 03:17:36;;;;;;;10.10;9.10;;;;;;;12.19;99.58;99555.23;1668263;84;21049;-81
2022/10/26 03:20:03;;;;;;;9.35;8.40;;;;;;;12.17;99.99;99559.92;1674477;84;21168;-80
2022/10/26 03:22:31;;;;;;;10.63;7.95;;;;;;;12.20;99.83;99562.20;1673353;84;21129;-80
2022/10/26 03:24:57;;;;;;;13.13;8.75;;;;;;;12.27;99.41;99564.98;1672588;85;21218;-80
2022/10/26 03:27:25;;;;;;;11.18;8.10;;;;;;;12.23;99.70;99563.18;1673354;84;21116;-81
2022/10/26 03:29:53;;;;;;;9.90;8.68;;;;;;;12.19;99.71;99565.89;1672000;84;21026;-80
2022/10/26 03:32:19;;;;;;;9.63;8.65;;;;;;;12.26;99.50;99565.45;1673108;85;21335;-82
2022/10/26 03:34:45;;;;;;;11.50;8.95;;;;;;;12.29;99.25;99563.77;1672526;84;21029;-80
2022/10/26 03:37:13;;;;;;;13.35;9.13;;;;;;;12.30;99.49;99561.41;1669004;84;21048;-79
2022/10/26 03:39:40;;;;;;;10.05;8.48;;;;;;;12.29;99.87;99557.11;1670141;84;21060;-78
2022/10/26 03:42:07;;;;;;;11.40;8.68;;;;;;;12.36;99.76;99566.52;1669467;84;21052;-79
2022/10/26 03:44:33;;;;;;;11.45;8.68;;;;;;;12.44;99.15;99569.59;1671606;84;21231;-77
2022/10/26 03:49:48;;;;;;;9.70;8.70;;;;;;;12.41;99.17;99562.80;1883733;76;28064;-81
2022/10/26 03:52:15;;;;;;;8.95;7.97;;;;;;;12.35;99.27;99566.21;1829909;77;21029;-81
2022/10/26 03:54:42;;;;;;;18.60;8.90;;;;;;;12.42;98.89;99566.29;1840744;76;21152;-80
2022/10/26 03:57:09;;;;;;;9.28;8.38;;;;;;;12.41;98.96;99566.80;1827482;77;20992;-80
2022/10/26 03:59:36;;;;;;;8.85;7.70;;;;;;;12.37;99.00;99569.52;1834864;76;21516;-81
2022/10/26 04:02:02;;;;;;;10.23;8.65;;;;;;;12.35;99.00;99561.70;1848010;77;21025;-83
2022/10/26 04:04:29;;;;;;;9.70;8.70;;;;;;;12.46;98.92;99564.91;1841250;76;20976;-82
2022/10/26 04:06:56;;;;;;;10.15;9.10;;;;;;;12.46;98.87;99566.23;1831851;76;21280;-78
2022/10/26 04:09:23;;;;;;;9.75;8.75;;;;;;;12.41;98.88;99567.31;1841159;76;21580;-79
2022/10/26 04:11:50;;;;;;;11.73;9.08;;;;;;;12.42;98.93;99568.47;1847465;76;21020;-77
2022/10/26 04:14:17;;;;;;;10.72;8.73;;;;;;;12.52;98.85;99562.86;1838485;76;20966;-79
2022/10/26 04:16:43;;;;;;;9.85;8.40;;;;;;;12.51;98.60;99559.86;1833142;77;22167;-81
2022/10/26 04:19:11;;;;;;;10.53;8.85;;;;;;;12.49;98.68;99567.21;1851305;76;21111;-81
2022/10/26 04:21:38;;;;;;;10.95;8.95;;;;;;;12.49;98.24;99561.38;1856015;77;20989;-77
2022/10/26 04:24:06;;;;;;;9.03;8.08;;;;;;;12.54;97.90;99556.84;1838711;77;21107;-82
2022/10/26 04:26:35;;;;;;;10.58;8.60;;;;;;;12.51;97.93;99554.02;1828913;77;21336;-79
2022/10/26 04:29:05;;;;;;;8.95;8.05;;;;;;;12.47;98.14;99553.25;1846062;76;20993;-85
2022/10/26 04:31:30;;;;;;;8.78;7.87;;;;;;;12.48;97.89;99555.73;1850307;76;21749;-80
2022/10/26 04:33:56;;;;;;;11.08;7.80;;;;;;;12.53;97.58;99552.50;1843304;77;20997;-81
2022/10/26 04:36:23;;;;;;;8.98;8.10;;;;;;;12.51;97.86;99551.35;1849578;76;21088;-81
2022/10/26 04:38:49;;;;;;;8.45;7.65;;;;;;;12.48;97.84;99552.25;1850260;75;22194;-81
2022/10/26 04:41:16;;;;;;;8.73;7.80;;;;;;;12.49;97.68;99551.23;1853363;76;21048;-80
2022/10/26 04:43:43;;;;;;;8.38;7.50;;;;;;;12.52;97.17;99545.03;1861873;76;21249;-78
2022/10/26 04:46:09;;;;;;;8.73;7.83;;;;;;;12.50;97.28;99551.56;1854044;77;21084;-81
2022/10/26 04:48:35;;;;;;;8.55;7.75;;;;;;;12.42;97.65;99555.62;1841232;76;21023;-81
2022/10/26 04:51:02;;;;;;;8.18;7.33;;;;;;;12.43;97.92;99554.63;1840848;76;21072;-79
2022/10/26 04:53:29;;;;;;;9.50;8.08;;;;;;;12.53;97.75;99559.98;1829070;76;21026;-80
2022/10/26 04:55:59;;;;;;;9.45;8.55;;;;;;;12.54;97.90;99556.84;1823458;77;21085;-79
2022/10/26 04:58:27;;;;;;;9.60;8.35;;;;;;;12.48;97.75;99557.06;1827902;77;20971;-81
2022/10/26 05:00:53;;;;;;;8.20;7.40;;;;;;;12.51;97.71;99562.52;1831005;76;21592;-80
2022/10/26 05:03:20;;;;;;;8.50;7.70;;;;;;;12.56;97.35;99562.80;1846845;76;21058;-78
2022/10/26 05:05:46;;;;;;;9.78;8.50;;;;;;;12.51;97.56;99564.67;1771148;79;20996;-82
2022/10/26 05:08:14;;;;;;;8.08;7.22;;;;;;;12.48;97.92;99562.40;1762958;80;21090;-78
2022/10/26 05:10:41;;;;;;;10.10;8.08;;;;;;;12.53;98.23;99565.83;1831041;77;20998;-80
2022/10/26 05:13:08;;;;;;;11.25;8.20;;;;;;;12.66;97.81;99569.18;1821057;77;21541;-80
2022/10/26 05:15:35;;;;;;;10.48;8.15;;;;;;;12.68;97.73;99575.97;1792649;78;21026;-80
2022/10/26 05:18:04;;;;;;;9.45;7.05;;;;;;;12.67;97.62;99573.48;1771915;79;22461;-80
2022/10/26 05:20:32;;;;;;;9.58;7.70;;;;;;;12.71;97.54;99579.61;1790737;79;21222;-80
2022/10/26 05:23:01;;;;;;;9.40;7.70;;;;;;;12.81;97.17;99581.98;1792844;79;21081;-79
2022/10/26 05:25:30;;;;;;;8.85;7.95;;;;;;;12.81;97.23;99578.50;1787953;79;21052;-80
2022/10/26 05:28:01;;;;;;;8.10;7.30;;;;;;;12.76;97.03;99577.19;1790471;78;21121;-81
2022/10/26 05:30:28;;;;;;;8.90;8.00;;;;;;;12.79;96.83;99578.67;1769954;79;21563;-83
2022/10/26 05:32:59;;;;;;;8.53;7.55;;;;;;;12.86;96.78;99578.74;1758334;79;21280;-81
2022/10/26 05:35:26;;;;;;;9.83;8.85;;;;;;;12.84;96.77;99584.77;1795612;79;21159;-80
2022/10/26 05:37:53;;;;;;;8.78;7.22;;;;;;;12.79;96.83;99584.83;1787883;79;21077;-82
2022/10/26 05:40:19;;;;;;;8.53;7.62;;;;;;;12.84;96.81;99587.44;1754940;81;21620;-82
2022/10/26 05:42:46;;;;;;;9.73;7.92;;;;;;;12.91;96.58;99586.50;1768272;80;21483;-80
2022/10/26 05:45:13;;;;;;;9.00;7.95;;;;;;;12.88;96.57;99585.53;1766846;79;21027;-81
2022/10/26 05:47:43;;;;;;;9.18;8.03;;;;;;;12.82;96.79;99581.46;1759572;79;21042;-81
2022/10/26 05:50:10;;;;;;;10.68;7.83;;;;;;;12.83;96.71;99587.95;1760353;80;21014;-81
2022/10/26 05:52:41;;;;;;;8.90;7.62;;;;;;;12.89;96.59;99588.53;1738120;81;20990;-82
2022/10/26 05:55:08;;;;;;;8.88;8.00;;;;;;;12.88;96.39;99590.05;1744335;80;21049;-80
2022/10/26 05:57:36;;;;;;;11.45;7.25;;;;;;;12.82;96.80;99589.46;1746857;80;22041;-85
2022/10/26 06:00:11;;;;;;;9.85;7.47;;;;;;;12.87;97.00;99587.08;1735557;81;21003;-81
2022/10/26 06:03:18;;;;;;;12.28;8.20;;;;;;;13.01;96.88;99592.05;1759270;80;21539;-81
2022/10/26 06:05:56;;;;;;;8.73;7.55;;;;;;;13.05;96.40;99586.66;1704187;81;21026;-80
2022/10/26 06:08:25;;;;;;;8.00;7.20;;;;;;;13.00;96.41;99591.23;1741475;80;20990;-81
2022/10/26 06:10:53;;;;;;;9.23;6.12;;;;;;;13.03;96.46;99593.50;1737552;80;21120;-82
2022/10/26 06:13:20;;;;;;;7.92;7.12;;;;;;;13.14;96.42;99591.69;1738760;80;21037;-82
2022/10/26 06:16:21;;;;;;;7.67;6.83;;;;;;;13.18;96.34;99591.63;1741772;80;21045;-81
2022/10/26 06:19:02;;;;;;;10.18;7.08;;;;;;;13.18;96.24;99596.96;1744065;81;21071;-83
2022/10/26 06:21:41;;;;;;;7.28;6.58;;;;;;;13.20;95.95;99591.96;1780561;80;20979;-80
2022/10/26 06:24:48;;;;;;;9.80;7.97;;;;;;;13.29;96.06;99587.65;1819693;77;21228;-82
2022/10/26 06:27:44;;;;;;;8.33;7.33;;;;;;;13.31;95.69;99599.50;1821097;77;20916;-81
2022/10/26 06:30:11;;;;;;;8.00;7.20;;;;;;;13.28;95.80;99596.66;1819038;77;20996;-79
2022/10/26 06:32:44;;;;;;;10.25;7.28;;;;;;;13.39;95.40;99602.05;1821577;77;20957;-83
2022/10/26 06:35:44;;;;;;;8.85;7.83;;;;;;;13.47;95.04;99599.24;1818703;78;20978;-81
2022/10/26 06:38:15;;;;;;;8.88;7.47;;;;;;;13.50;95.27;99600.21;1797170;77;21120;-80
2022/10/26 06:40:47;;;;;;;7.72;7.03;;;;;;;13.54;95.40;99607.30;1772667;79;21516;-80
2022/10/26 06:43:27;;;;;;;7.33;6.62;;;;;;;13.62;94.95;99599.67;1820920;77;20986;-79
2022/10/26 06:46:30;;;;;;;7.60;6.85;;;;;;;13.71;93.96;99607.88;1790306;77;21581;-82
2022/10/26 06:49:08;;;;;;;8.67;6.57;;;;;;;13.72;94.04;99609.54;1813452;77;21004;-80
2022/10/26 06:51:39;;;;;;;6.62;5.87;;;;;;;13.71;93.96;99610.06;1817836;77;21145;-80
2022/10/26 06:54:50;;;;;;;6.70;6.10;;;;;;;13.76;93.50;99613.47;1778637;80;21576;-81
2022/10/26 06:57:21;;;;;;;8.30;6.58;;;;;;;13.84;93.03;99616.00;1779655;79;21042;-80
2022/10/26 07:00:02;;;;;;;7.15;6.08;;;;;;;13.80;92.77;99609.40;1781988;79;21545;-79
2022/10/26 07:02:29;;;;;;;7.40;6.28;;;;;;;13.74;93.04;99617.66;1789226;79;21001;-80
2022/10/26 07:04:56;;;;;;;5.90;5.40;;;;;;;13.76;92.68;99623.64;1777130;79;21097;-80
2022/10/26 07:07:24;;;;;;;6.72;5.72;;;;;;;13.83;92.43;99625.53;1755504;80;21061;-80
2022/10/26 07:09:51;;;;;;;6.15;5.55;;;;;;;13.81;92.39;99624.41;1761409;80;21454;-79
2022/10/26 07:12:18;;;;;;;7.30;6.08;;;;;;;13.81;92.75;99619.56;1758198;81;21568;-80
2022/10/26 07:14:45;;;;;;;8.70;5.60;;;;;;;13.88;92.71;99626.61;1757869;80;21502;-80
2022/10/26 07:17:13;;;;;;;6.75;6.12;;;;;;;14.00;92.07;99620.75;1757239;80;21196;-80
2022/10/26 07:19:43;;;;;;;6.33;5.60;;;;;;;14.01;92.06;99624.57;1728009;81;21034;-80
2022/10/26 07:22:10;;;;;;;10.50;6.50;;;;;;;14.00;91.90;99618.08;1760314;80;21048;-77
2022/10/26 07:24:38;;;;;;;9.28;5.95;;;;;;;14.02;91.93;99629.39;1763537;80;21069;-79
2022/10/26 07:27:05;;;;;;;8.73;6.87;;;;;;;14.10;91.63;99627.91;1760104;80;21018;-80
2022/10/26 07:29:34;;;;;;;7.95;6.60;;;;;;;14.07;91.82;99633.66;1815837;78;21532;-79
2022/10/26 07:32:00;;;;;;;10.50;7.20;;;;;;;14.04;92.05;99644.23;1806949;77;21040;-80
2022/10/26 07:34:28;;;;;;;6.97;6.28;;;;;;;14.06;91.45;99646.69;1819237;78;20979;-81
2022/10/26 07:36:54;;;;;;;7.25;5.90;;;;;;;14.11;91.51;99651.77;1813025;78;21037;-78
2022/10/26 07:39:21;;;;;;;10.18;6.90;;;;;;;14.12;91.61;99656.63;1809699;77;21657;-79
2022/10/26 07:41:47;;;;;;;7.87;6.42;;;;;;;14.09;91.85;99659.67;1826570;77;21152;-79
2022/10/26 07:44:14;;;;;;;8.23;6.33;;;;;;;14.13;91.87;99652.91;1819844;77;21061;-80
2022/10/26 07:46:40;;;;;;;7.47;6.75;;;;;;;14.24;91.59;99649.72;1818468;77;21060;-78
2022/10/26 07:49:08;;;;;;;8.53;6.10;;;;;;;14.25;91.16;99648.68;1816694;77;20990;-81
2022/10/26 07:51:35;;;;;;;7.20;6.50;;;;;;;14.20;90.91;99652.95;1799831;79;21089;-81
2022/10/26 07:54:03;;;;;;;10.45;5.97;;;;;;;14.14;90.90;99651.39;1804108;78;20963;-79
2022/10/26 07:56:30;;;;;;;7.50;6.08;;;;;;;14.17;91.29;99652.84;1788042;79;21052;-79
2022/10/26 07:58:57;;;;;;;7.12;6.12;;;;;;;14.15;91.44;99659.70;1800201;79;20978;-79
2022/10/26 08:01:23;;;;;;;6.37;5.78;;;;;;;14.10;91.58;99662.64;1793587;79;21117;-79
2022/10/26 08:03:53;;;;;;;11.73;6.10;;;;;;;14.12;91.34;99656.10;1791901;79;21046;-78
2022/10/26 08:06:23;;;;;;;6.78;6.15;;;;;;;14.21;91.11;99663.97;1793577;79;21145;-83
2022/10/26 08:08:50;;;;;;;6.90;5.67;;;;;;;14.23;91.23;99661.93;1783557;79;20939;-84
2022/10/26 08:11:17;;;;;;;6.12;5.50;;;;;;;14.23;91.50;99661.93;1753874;80;20969;-87
2022/10/26 08:13:45;;;;;;;9.98;5.92;;;;;;;14.27;90.95;99660.52;1784158;79;21119;-85
2022/10/26 08:16:12;;;;;;;6.62;5.50;;;;;;;14.36;90.76;99665.52;1796762;77;21083;-82
2022/10/26 08:18:39;;;;;;;6.55;5.87;;;;;;;14.36;90.82;99663.37;1789930;78;21186;-84
2022/10/26 08:21:10;;;;;;;6.15;5.53;;;;;;;14.37;91.38;99666.37;1780894;79;20975;-81
2022/10/26 08:23:37;;;;;;;6.25;5.65;;;;;;;14.44;91.32;99671.23;1804661;79;21019;-82
2022/10/26 08:26:04;;;;;;;6.53;5.22;;;;;;;14.58;90.87;99670.84;1786319;80;21014;-83
2022/10/26 08:28:30;;;;;;;5.87;5.28;;;;;;;14.62;90.59;99668.11;1807506;79;21068;-82
2022/10/26 08:30:57;;;;;;;7.87;4.90;;;;;;;14.64;90.52;99668.73;1805105;77;21338;-82
2022/10/26 08:33:25;;;;;;;6.10;5.25;;;;;;;14.75;90.43;99673.52;1739729;79;21076;-86
2022/10/26 08:35:58;;;;;;;7.40;5.67;;;;;;;14.88;90.14;99677.30;1714500;82;21010;-84
2022/10/26 08:38:24;;;;;;;6.08;5.58;;;;;;;14.92;89.58;99668.67;1737552;82;21014;-81
2022/10/26 08:40:52;;;;;;;7.97;5.67;;;;;;;14.96;90.03;99678.47;1733061;82;21826;-83
2022/10/26 08:43:42;;;;;;;5.72;5.10;;;;;;;15.09;89.95;99676.38;1731486;82;21518;-83
2022/10/26 08:46:49;;;;;;;;;;;;;;;;;;;;;
2022/10/26 08:49:34;;;;;;;6.00;5.25;;;;;;;15.43;88.83;99683.52;1620769;82;20939;-90
2022/10/26 08:52:06;;;;;;;8.20;5.20;;;;;;;15.46;87.86;99691.64;1731122;81;21002;-90
2022/10/26 08:54:56;;;;;;;6.97;4.97;;;;;;;15.51;87.76;99688.68;1724996;81;21042;-90
2022/10/26 08:57:36;;;;;;;6.03;5.47;;;;;;;15.57;86.61;99692.41;1739529;82;21077;-88
2022/10/26 09:00:08;;;;;;;7.55;5.53;;;;;;;15.50;86.55;99695.05;1733061;82;21014;-88
2022/10/26 09:02:50;;;;;;;5.83;5.12;;;;;;;15.43;86.20;99696.90;1728011;82;21085;-89
2022/10/26 09:05:28;;;;;;;5.95;5.17;;;;;;;15.45;85.79;99702.88;1705590;82;21080;-87
2022/10/26 09:08:31;;;;;;;8.53;5.40;;;;;;;15.47;86.21;99694.62;1694368;83;21065;-88
2022/10/26 09:11:48;;;;;;;6.87;5.08;;;;;;;15.39;86.10;99688.93;1640670;84;21120;-88
2022/10/26 09:14:55;;;;;;;8.08;5.53;;;;;;;15.34;85.70;99694.89;1640798;84;21146;-88
2022/10/26 09:21:39;;;;;;;5.57;4.97;;;;;;;15.33;86.00;99702.59;1626268;84;21076;-89
2022/10/26 09:24:26;;;;;;;5.25;4.35;;;;;;;15.24;86.04;99710.51;1648779;85;21078;-87
2022/10/26 09:27:14;;;;;;;8.73;4.85;;;;;;;15.23;85.65;99704.83;1638123;85;21065;-88
2022/10/26 09:29:41;;;;;;;5.47;4.95;;;;;;;15.28;86.44;99701.58;1685550;83;21068;-86
2022/10/26 09:32:13;;;;;;;4.75;4.25;;;;;;;15.33;86.73;99706.61;1702179;83;20919;-87
2022/10/26 09:34:51;;;;;;;5.15;4.12;;;;;;;15.47;87.34;99706.17;1625458;84;21056;-86
2022/10/26 09:37:28;;;;;;;4.78;4.28;;;;;;;15.71;87.38;99707.98;1701788;83;21037;-86
2022/10/26 09:40:25;;;;;;;9.55;4.80;;;;;;;15.91;85.19;99706.19;1699566;83;21533;-85
2022/10/26 09:42:54;;;;;;;6.85;4.75;;;;;;;15.90;84.79;99705.89;1689222;81;21203;-84
2022/10/26 09:45:34;;;;;;;7.80;5.28;;;;;;;15.88;85.23;99714.64;1758842;80;21001;-87
2022/10/26 09:48:23;;;;;;;6.00;4.42;;;;;;;15.96;85.24;99712.81;1748135;81;21495;-88
2022/10/26 09:50:58;;;;;;;7.78;4.65;;;;;;;16.02;84.19;99710.13;1718574;81;21065;-91
2022/10/26 09:53:35;;;;;;;7.12;5.17;;;;;;;15.90;84.31;99707.23;1690052;83;21067;-88
2022/10/26 09:56:11;;;;;;;6.67;5.28;;;;;;;15.80;85.00;99709.48;1737039;81;20966;-90
2022/10/26 09:58:50;;;;;;;;;;;;;;;15.75;87.29;99711.13;1762448;79;20986;-88
2022/10/26 10:01:36;;;;;;;6.70;5.08;;;;;;;15.68;88.65;99713.73;1767625;81;20402;-88
2022/10/26 10:06:57;;;;;;;8.60;5.62;;;;;;;15.34;89.54;99709.62;1804967;77;21024;-88
2022/10/26 10:09:24;;;;;;;;;;;;;;;15.33;90.35;99711.15;1810906;76;20968;-87
2022/10/26 10:11:59;;;;;;;8.25;6.17;;;;;;;15.43;91.24;99709.44;1817912;76;20116;-88
2022/10/26 10:14:45;;;;;;;6.60;5.85;;;;;;;15.53;91.33;99719.27;1787096;77;20969;-88
2022/10/26 10:17:22;;;;;;;8.30;6.10;;;;;;;15.78;90.40;99718.24;1804688;77;21050;-87
2022/10/26 10:19:52;;;;;;;9.35;6.25;;;;;;;16.12;90.52;99711.06;1794907;75;21122;-84
2022/10/26 10:22:23;;;;;;;12.58;6.55;;;;;;;16.38;87.75;99713.44;1775401;77;21066;-85
2022/10/26 10:25:01;;;;;;;10.40;7.03;;;;;;;16.44;85.96;99713.45;1802947;78;21058;-84
2022/10/26 10:27:29;;;;;;;7.60;6.60;;;;;;;16.43;84.65;99713.13;1771451;79;21031;-83
2022/10/26 10:30:00;;;;;;;8.30;6.15;;;;;;;16.47;84.30;99712.20;1798912;78;21530;-85
2022/10/26 10:32:32;;;;;;;7.78;5.45;;;;;;;16.51;83.57;99708.06;1798014;77;21013;-84
2022/10/26 10:34:59;;;;;;;8.90;6.17;;;;;;;16.41;83.22;99709.83;1809748;77;21015;-84
2022/10/26 10:37:38;;;;;;;8.08;5.92;;;;;;;16.38;82.91;99703.56;1803591;77;21511;-83
2022/10/26 10:40:10;;;;;;;8.00;5.75;;;;;;;16.45;83.36;99703.54;1798314;77;21101;-80
2022/10/26 10:42:38;;;;;;;10.38;5.85;;;;;;;16.56;82.59;99706.13;1766836;79;21048;-83
2022/10/26 10:45:25;;;;;;;9.83;6.20;;;;;;;16.50;81.69;99711.27;1763164;79;21017;-81
2022/10/26 10:48:15;;;;;;;8.13;5.90;;;;;;;16.37;81.65;99703.76;1750850;79;21032;-83
2022/10/26 10:51:00;;;;;;;5.97;5.33;;;;;;;16.33;81.37;99714.59;1762289;79;21054;-82
2022/10/26 10:53:45;;;;;;;7.03;5.45;;;;;;;16.36;81.65;99719.52;1766514;79;21024;-82
2022/10/26 10:56:37;;;;;;;6.85;5.60;;;;;;;16.27;81.07;99717.05;1770594;79;21068;-80
2022/10/26 10:59:21;;;;;;;8.90;5.85;;;;;;;16.16;81.64;99721.68;1757552;80;21192;-81
2022/10/26 11:02:00;;;;;;;5.87;5.28;;;;;;;16.09;82.17;99722.21;1741137;79;21097;-80
2022/10/26 11:04:51;;;;;;;7.17;5.87;;;;;;;16.13;82.05;99718.09;1767722;79;22062;-82
2022/10/26 11:07:20;;;;;;;7.30;6.42;;;;;;;16.11;80.69;99722.30;1740052;81;21550;-83
2022/10/26 11:09:47;;;;;;;7.28;5.67;;;;;;;16.02;81.87;99719.50;1732431;81;21178;-80
2022/10/26 11:12:36;;;;;;;6.30;5.70;;;;;;;16.18;82.72;99723.64;1736608;81;22326;-83
2022/10/26 11:15:17;;;;;;;8.05;5.40;;;;;;;16.63;82.20;99716.30;1733440;81;21002;-79
2022/10/26 11:18:05;;;;;;;6.60;6.00;;;;;;;17.24;81.55;99709.27;1737927;81;21088;-82
2022/10/26 11:20:37;;;;;;;6.80;5.55;;;;;;;17.83;80.47;99711.89;1717754;81;22475;-83
2022/10/26 11:23:21;;;;;;;7.75;6.97;;;;;;;18.37;77.47;99710.48;1710336;81;21111;-81
2022/10/26 11:26:16;;;;;;;5.97;5.05;;;;;;;18.85;75.49;99705.83;1737767;79;21084;-82
2022/10/26 11:28:52;;;;;;;9.10;6.33;;;;;;;19.28;71.99;99712.68;1760090;79;21133;-83
2022/10/26 11:31:24;;;;;;;6.72;6.03;;;;;;;19.35;71.99;99706.70;1743379;79;20998;-83
2022/10/26 11:34:13;;;;;;;6.97;6.03;;;;;;;19.12;71.42;99714.11;1733330;80;21077;-80
2022/10/26 11:36:40;;;;;;;8.33;6.70;;;;;;;18.82;70.72;99712.98;1736484;80;21036;-79
2022/10/26 11:39:27;;;;;;;9.13;6.75;;;;;;;18.48;70.82;99717.00;1739676;81;21683;-81
2022/10/26 11:42:02;;;;;;;7.22;6.50;;;;;;;18.17;71.70;99717.88;1728650;80;21480;-82
2022/10/26 11:44:58;;;;;;;7.03;5.75;;;;;;;17.80;72.11;99719.84;1757057;79;21204;-80
2022/10/26 11:47:41;;;;;;;7.60;6.10;;;;;;;18.13;73.65;99721.52;1711609;81;21062;-82
2022/10/26 11:50:20;;;;;;;8.45;6.67;;;;;;;19.10;76.37;99708.95;1723091;80;21025;-81
2022/10/26 11:52:56;;;;;;;6.30;5.70;;;;;;;20.02;75.11;99712.02;1750820;80;21251;-85
2022/10/26 11:55:22;;;;;;;6.90;5.90;;;;;;;20.40;69.10;99702.71;1718858;82;21073;-83
2022/10/26 11:57:51;;;;;;;8.18;5.70;;;;;;;20.31;68.85;99713.02;1746326;81;21013;-86
2022/10/26 12:00:20;;;;;;;6.85;6.05;;;;;;;20.05;67.47;99712.92;1744477;81;21048;-87
2022/10/26 12:02:57;;;;;;;9.38;6.20;;;;;;;19.67;68.21;99715.93;1728950;80;21072;-85
2022/10/26 12:05:53;;;;;;;7.35;5.62;;;;;;;19.28;68.12;99724.80;1705001;81;21070;-86
2022/10/26 12:08:27;;;;;;;5.72;5.22;;;;;;;18.75;68.14;99722.95;1713379;81;21534;-80
2022/10/26 12:11:30;;;;;;;7.12;5.20;;;;;;;18.24;69.33;99731.58;1737279;81;21077;-88
2022/10/26 12:14:33;;;;;;;;;;;;;;;17.90;69.93;99722.62;1676659;83;21073;-86